createdAt,value
2019-02-22T00:01:31.175Z,40.33
2019-02-22T00:03:59.427Z,40.70
2019-02-22T00:06:27.691Z,41.10
2019-02-22T00:08:55.953Z,39.77
2019-02-22T00:11:24.234Z,40.90
2019-02-22T00:13:52.524Z,42.10
2019-02-22T00:16:20.810Z,40.90
2019-02-22T00:18:49.102Z,41.40
2019-02-22T00:21:17.411Z,42.53
2019-02-22T00:23:47.982Z,42.90
2019-02-22T00:26:16.268Z,40.27
2019-02-22T00:28:44.531Z,40.77
2019-02-22T00:31:12.858Z,41.90
2019-02-22T00:33:41.148Z,42.23
2019-02-22T00:36:09.475Z,43.30
2019-02-22T00:38:37.808Z,43.83
2019-02-22T00:41:06.094Z,44.50
2019-02-22T00:43:34.356Z,42.83
2019-02-22T00:46:02.616Z,42.33
2019-02-22T00:48:30.881Z,43.23
2019-02-22T00:51:01.996Z,43.93
2019-02-22T00:53:30.281Z,43.17
2019-02-22T00:55:58.627Z,44.30
2019-02-22T00:58:26.961Z,42.67
2019-02-22T01:00:55.237Z,44.43
2019-02-22T01:03:23.499Z,43.27
2019-02-22T01:05:51.790Z,42.63
2019-02-22T01:08:20.140Z,43.83
2019-02-22T01:10:48.424Z,44.60
2019-02-22T01:13:16.693Z,44.97
2019-02-22T01:15:44.986Z,43.30
2019-02-22T01:18:13.263Z,44.97
2019-02-22T01:20:53.710Z,43.77
2019-02-22T01:23:13.247Z,44.93
2019-02-22T01:25:41.501Z,45.17
2019-02-22T01:28:09.883Z,45.30
2019-02-22T01:30:38.141Z,44.63
2019-02-22T01:33:06.456Z,45.77
2019-02-22T01:35:34.724Z,47.30
2019-02-22T01:38:03.118Z,47.20
2019-02-22T01:40:42.677Z,44.93
2019-02-22T01:43:01.498Z,45.67
2019-02-22T01:45:29.852Z,45.63
2019-02-22T01:47:58.140Z,48.00
2019-02-22T01:50:26.420Z,47.87
2019-02-22T01:52:54.727Z,48.10
2019-02-22T01:55:23.039Z,46.97
2019-02-22T01:57:51.311Z,47.70
2019-02-22T02:00:19.594Z,49.13
2019-02-22T02:02:47.872Z,49.67
2019-02-22T02:05:16.240Z,50.43
2019-02-22T02:07:44.509Z,49.60
2019-02-22T02:10:12.797Z,47.87
2019-02-22T02:12:41.068Z,50.53
2019-02-22T02:15:09.338Z,49.77
2019-02-22T02:17:37.644Z,50.93
2019-02-22T02:20:07.475Z,49.67
2019-02-22T02:22:35.803Z,51.13
2019-02-22T02:25:04.720Z,47.33
2019-02-22T02:27:33.014Z,51.87
2019-02-22T02:30:01.302Z,50.70
2019-02-22T02:32:29.712Z,51.10
2019-02-22T02:34:57.983Z,52.67
2019-02-22T02:37:26.249Z,51.80
2019-02-22T02:39:54.516Z,51.97
2019-02-22T02:42:22.816Z,50.83
2019-02-22T02:44:51.158Z,51.83
2019-02-22T02:47:19.419Z,50.93
2019-02-22T02:49:47.695Z,51.57
2019-02-22T02:52:15.969Z,51.13
2019-02-22T02:54:44.379Z,52.97
2019-02-22T02:57:12.645Z,53.07
2019-02-22T02:59:40.916Z,54.07
2019-02-22T03:02:12.445Z,50.70
2019-02-22T03:04:40.794Z,52.73
2019-02-22T03:07:10.721Z,51.97
2019-02-22T03:09:38.980Z,50.90
2019-02-22T03:12:07.241Z,51.00
2019-02-22T03:14:35.508Z,50.30
2019-02-22T03:17:03.799Z,51.13
2019-02-22T03:19:32.187Z,53.03
2019-02-22T03:22:00.464Z,52.17
2019-02-22T03:24:28.762Z,52.13
2019-02-22T03:26:57.085Z,51.33
2019-02-22T03:29:25.367Z,49.67
2019-02-22T03:31:53.622Z,51.57
2019-02-22T03:34:21.899Z,53.23
2019-02-22T03:36:50.332Z,51.83
2019-02-22T03:39:21.656Z,53.87
2019-02-22T03:41:49.944Z,51.93
2019-02-22T03:44:18.230Z,50.87
2019-02-22T03:46:46.580Z,51.13
2019-02-22T03:49:15.029Z,53.70
2019-02-22T03:51:43.311Z,51.90
2019-02-22T03:54:11.602Z,54.70
2019-02-22T03:56:39.882Z,53.47
2019-02-22T03:59:08.132Z,52.40
2019-02-22T04:01:36.413Z,52.57
2019-02-22T04:04:04.679Z,53.90
2019-02-22T04:06:32.976Z,50.97
2019-02-22T04:09:01.258Z,53.33
2019-02-22T04:11:29.543Z,51.20
2019-02-22T04:13:57.810Z,53.10
2019-02-22T04:16:26.115Z,53.73
2019-02-22T04:18:54.395Z,53.03
2019-02-22T04:21:22.641Z,56.53
2019-02-22T04:23:50.955Z,53.30
2019-02-22T04:26:19.234Z,53.53
2019-02-22T04:28:47.519Z,53.87
2019-02-22T04:31:15.796Z,56.50
2019-02-22T04:33:44.254Z,52.10
2019-02-22T04:36:12.545Z,53.70
2019-02-22T04:38:40.820Z,54.90
2019-02-22T04:41:09.105Z,53.77
2019-02-22T04:43:37.502Z,54.20
2019-02-22T04:46:05.806Z,55.73
2019-02-22T04:48:34.066Z,55.00
2019-02-22T04:51:02.381Z,56.53
2019-02-22T04:53:30.696Z,56.63
2019-02-22T04:55:58.990Z,55.07
2019-02-22T04:58:27.334Z,58.20
2019-02-22T05:00:55.588Z,55.13
2019-02-22T05:03:23.876Z,56.23
2019-02-22T05:05:52.130Z,57.40
2019-02-22T05:08:20.432Z,58.37
2019-02-22T05:10:48.713Z,55.03
2019-02-22T05:13:17.035Z,59.07
2019-02-22T05:15:45.296Z,59.80
2019-02-22T05:18:13.582Z,57.73
2019-02-22T05:20:41.834Z,59.20
2019-02-22T05:23:10.106Z,56.97
2019-02-22T05:25:38.385Z,59.07
2019-02-22T05:28:06.646Z,59.50
2019-02-22T05:30:36.539Z,60.27
2019-02-22T05:33:04.986Z,55.63
2019-02-22T05:35:33.265Z,60.17
2019-02-22T05:38:01.538Z,60.53
2019-02-22T05:40:29.831Z,57.73
2019-02-22T05:42:58.133Z,58.97
2019-02-22T05:45:26.405Z,58.57
2019-02-22T05:47:54.655Z,59.50
2019-02-22T05:50:22.974Z,58.53
2019-02-22T05:52:51.244Z,59.00
2019-02-22T05:55:19.563Z,56.27
2019-02-22T05:57:47.821Z,54.67
2019-02-22T06:00:17.096Z,55.27
2019-02-22T06:02:45.384Z,55.50
2019-02-22T06:05:13.685Z,56.17
2019-02-22T06:07:42.105Z,53.13
2019-02-22T06:10:11.177Z,56.53
2019-02-22T06:12:39.559Z,55.03
2019-02-22T06:15:08.535Z,55.00
2019-02-22T06:17:36.849Z,52.87
2019-02-22T06:20:08.542Z,55.40
2019-02-22T06:22:36.812Z,54.43
2019-02-22T06:25:06.402Z,54.27
2019-02-22T06:27:34.671Z,52.10
2019-02-22T06:30:02.927Z,54.37
2019-02-22T06:32:31.210Z,55.10
2019-02-22T06:34:59.506Z,52.43
2019-02-22T06:37:27.792Z,54.43
2019-02-22T06:39:56.054Z,53.80
2019-02-22T06:42:24.435Z,49.47
2019-02-22T06:44:52.694Z,54.70
2019-02-22T06:47:22.864Z,50.73
2019-02-22T06:49:50.989Z,51.30
2019-02-22T06:52:19.229Z,50.77
2019-02-22T06:54:47.519Z,52.20
2019-02-22T06:57:15.781Z,52.30
2019-02-22T06:59:44.109Z,52.10
2019-02-22T07:02:12.377Z,50.97
2019-02-22T07:04:40.632Z,52.23
2019-02-22T07:07:08.902Z,50.13
2019-02-22T07:09:37.156Z,48.70
2019-02-22T07:12:23.260Z,51.30
2019-02-22T07:14:51.541Z,49.67
2019-02-22T07:17:19.846Z,50.87
2019-02-22T07:19:48.239Z,50.10
2019-02-22T07:22:16.659Z,50.47
2019-02-22T07:24:44.923Z,48.97
2019-02-22T07:27:13.183Z,50.03
2019-02-22T07:29:41.450Z,49.63
2019-02-22T07:32:09.716Z,49.80
2019-02-22T07:34:38.000Z,49.50
2019-02-22T07:37:06.321Z,49.10
2019-02-22T07:39:34.682Z,47.90
2019-02-22T07:42:02.935Z,48.70
2019-02-22T07:44:31.230Z,48.50
2019-02-22T07:46:59.517Z,45.83
2019-02-22T07:49:27.771Z,47.47
2019-02-22T07:51:56.037Z,46.87
2019-02-22T07:54:24.309Z,45.47
2019-02-22T07:56:52.638Z,45.97
2019-02-22T07:59:20.913Z,45.23
2019-02-22T08:01:49.199Z,44.13
2019-02-22T08:04:17.451Z,42.83
2019-02-22T08:06:45.742Z,43.60
2019-02-22T08:09:14.000Z,44.23
2019-02-22T08:11:42.259Z,48.33
2019-02-22T08:14:10.621Z,45.27
2019-02-22T08:16:41.465Z,43.17
2019-02-22T08:19:11.270Z,40.13
2019-02-22T08:21:39.739Z,38.90
2019-02-22T08:24:08.001Z,41.43
2019-02-22T08:26:36.264Z,39.07
2019-02-22T08:29:04.526Z,38.83
2019-02-22T08:31:32.781Z,39.20
2019-02-22T08:34:01.058Z,37.53
2019-02-22T08:36:29.312Z,36.63
2019-02-22T08:38:57.613Z,34.47
2019-02-22T08:41:25.882Z,36.27
2019-02-22T08:43:54.137Z,35.70
2019-02-22T08:46:22.436Z,35.17
2019-02-22T08:48:50.668Z,34.70
2019-02-22T08:51:18.955Z,33.80
2019-02-22T08:53:47.214Z,32.27
2019-02-22T08:56:15.517Z,33.47
2019-02-22T08:58:43.825Z,32.60
2019-02-22T09:01:12.090Z,30.50
2019-02-22T09:03:49.944Z,31.10
2019-02-22T09:06:10.674Z,30.43
2019-02-22T09:08:38.933Z,30.80
2019-02-22T09:11:07.273Z,31.63
2019-02-22T09:13:43.218Z,29.43
2019-02-22T09:16:05.559Z,30.07
2019-02-22T09:18:33.831Z,30.03
2019-02-22T09:21:02.094Z,27.87
2019-02-22T09:23:30.502Z,28.57
2019-02-22T09:25:58.772Z,27.50
2019-02-22T09:28:27.041Z,26.93
2019-02-22T09:30:55.323Z,27.43
2019-02-22T09:33:23.593Z,29.77
2019-02-22T09:35:51.887Z,32.30
2019-02-22T09:38:20.244Z,29.10
2019-02-22T09:40:48.668Z,25.97
2019-02-22T09:43:16.919Z,27.10
2019-02-22T09:45:45.188Z,24.80
2019-02-22T09:48:13.476Z,23.80
2019-02-22T09:50:41.739Z,22.87
2019-02-22T09:53:10.046Z,21.27
2019-02-22T09:55:38.355Z,21.10
2019-02-22T09:58:06.628Z,20.80
2019-02-22T10:00:34.891Z,19.67
2019-02-22T10:03:03.184Z,21.00
2019-02-22T10:05:31.523Z,20.10
2019-02-22T10:07:59.782Z,20.90
2019-02-22T10:10:28.045Z,21.07
2019-02-22T10:12:56.312Z,19.93
2019-02-22T10:15:24.572Z,18.60
2019-02-22T10:17:52.877Z,18.83
2019-02-22T10:20:21.147Z,19.53
2019-02-22T10:22:49.446Z,20.17
2019-02-22T10:25:17.775Z,19.00
2019-02-22T10:27:46.087Z,19.17
2019-02-22T10:30:14.588Z,19.43
2019-02-22T10:32:42.936Z,19.33
2019-02-22T10:35:11.194Z,18.53
2019-02-22T10:37:39.468Z,19.30
2019-02-22T10:40:09.278Z,19.23
2019-02-22T10:42:37.587Z,17.60
2019-02-22T10:45:08.546Z,17.13
2019-02-22T10:47:36.835Z,18.30
2019-02-22T10:50:06.646Z,16.10
2019-02-22T10:52:34.918Z,17.43
2019-02-22T10:55:04.110Z,17.30
2019-02-22T10:57:32.536Z,17.67
2019-02-22T11:00:00.959Z,18.10
2019-02-22T11:02:31.387Z,16.87
2019-02-22T11:04:59.852Z,18.30
2019-02-22T11:07:28.120Z,17.10
2019-02-22T11:09:56.518Z,17.07
2019-02-22T11:12:24.861Z,15.97
2019-02-22T11:14:53.211Z,16.20
2019-02-22T11:17:21.573Z,15.83
2019-02-22T11:19:51.520Z,14.70
2019-02-22T11:22:22.622Z,15.80
2019-02-22T11:24:50.893Z,17.03
2019-02-22T11:27:19.196Z,15.07
2019-02-22T11:29:49.385Z,16.20
2019-02-22T11:32:17.470Z,14.77
2019-02-22T11:34:45.741Z,14.67
2019-02-22T11:37:14.027Z,15.03
2019-02-22T11:39:42.429Z,13.37
2019-02-22T11:42:10.717Z,14.17
2019-02-22T11:44:40.456Z,14.57
2019-02-22T11:47:08.862Z,15.90
2019-02-22T11:49:37.127Z,14.80
2019-02-22T11:52:05.413Z,13.43
2019-02-22T11:54:33.674Z,14.00
2019-02-22T11:57:01.974Z,13.47
2019-02-22T11:59:30.243Z,13.73
2019-02-22T12:01:58.648Z,12.63
2019-02-22T12:04:27.012Z,12.10
2019-02-22T12:06:55.272Z,12.80
2019-02-22T12:09:23.537Z,12.40
2019-02-22T12:11:51.806Z,13.30
2019-02-22T12:14:20.065Z,11.47
2019-02-22T12:16:48.388Z,11.23
2019-02-22T12:19:16.647Z,11.43
2019-02-22T12:21:44.912Z,10.50
2019-02-22T12:24:13.209Z,11.20
2019-02-22T12:26:41.472Z,11.17
2019-02-22T12:29:09.739Z,11.57
2019-02-22T12:31:38.004Z,11.90
2019-02-22T12:34:06.267Z,11.57
2019-02-22T12:36:34.555Z,11.83
2019-02-22T12:39:04.499Z,12.60
2019-02-22T12:41:32.797Z,12.37
2019-02-22T12:44:01.060Z,12.37
2019-02-22T12:46:29.319Z,12.40
2019-02-22T12:48:57.587Z,13.67
2019-02-22T12:51:25.857Z,13.20
2019-02-22T12:53:54.296Z,13.67
2019-02-22T12:56:53.265Z,13.67
2019-02-22T12:58:52.716Z,12.07
2019-02-22T13:01:20.987Z,12.33
2019-02-22T13:03:49.368Z,11.57
2019-02-22T13:06:17.592Z,10.30
2019-02-22T13:08:45.851Z,9.50
2019-02-22T13:11:14.254Z,8.67
2019-02-22T13:13:42.504Z,8.50
2019-02-22T13:16:10.858Z,9.27
2019-02-22T13:18:39.191Z,10.40
2019-02-22T13:21:07.718Z,10.80
2019-02-22T13:23:35.989Z,11.57
2019-02-22T13:26:04.251Z,9.30
2019-02-22T13:28:32.950Z,8.00
2019-02-22T13:31:01.625Z,8.50
2019-02-22T13:33:30.294Z,8.63
2019-02-22T13:35:58.926Z,8.37
2019-02-22T13:38:27.234Z,8.40
2019-02-22T13:40:55.785Z,7.77
2019-02-22T13:43:24.476Z,7.87
2019-02-22T13:45:52.922Z,8.67
2019-02-22T13:48:21.489Z,9.30
2019-02-22T13:50:49.957Z,10.20
2019-02-22T13:53:18.256Z,10.07
2019-02-22T13:55:46.595Z,8.40
2019-02-22T13:58:15.602Z,9.13
2019-02-22T14:00:43.933Z,8.17
2019-02-22T14:03:12.352Z,8.87
2019-02-22T14:05:40.746Z,7.37
2019-02-22T14:08:09.277Z,6.23
2019-02-22T14:10:37.924Z,6.53
2019-02-22T14:13:06.450Z,6.50
2019-02-22T14:15:38.333Z,7.40
2019-02-22T14:18:05.370Z,6.03
2019-02-22T14:20:33.665Z,7.60
2019-02-22T14:23:03.649Z,7.13
2019-02-22T14:25:32.539Z,7.03
2019-02-22T14:28:01.212Z,6.77
2019-02-22T14:30:29.624Z,6.23
2019-02-22T14:32:58.153Z,6.93
2019-02-22T14:35:26.759Z,5.50
2019-02-22T14:37:55.252Z,7.07
2019-02-22T14:40:23.583Z,5.80
2019-02-22T14:42:51.866Z,6.00
2019-02-22T14:45:20.121Z,5.50
2019-02-22T14:47:48.519Z,5.03
2019-02-22T14:50:20.020Z,5.60
2019-02-22T14:52:58.842Z,6.10
2019-02-22T14:55:27.180Z,5.53
2019-02-22T14:57:55.580Z,4.93
2019-02-22T15:00:23.906Z,6.43
2019-02-22T15:02:52.169Z,7.33
2019-02-22T15:05:20.887Z,7.10
2019-02-22T15:07:49.387Z,7.00
2019-02-22T15:10:18.731Z,6.90
2019-02-22T15:12:47.249Z,6.37
2019-02-22T15:15:17.317Z,5.90
2019-02-22T15:17:56.117Z,6.43
2019-02-22T15:20:26.103Z,5.47
2019-02-22T15:22:54.667Z,4.93
2019-02-22T15:25:23.329Z,4.20
2019-02-22T15:27:51.646Z,4.40
2019-02-22T15:30:20.446Z,4.17
2019-02-22T15:32:49.214Z,4.60
2019-02-22T15:35:18.240Z,4.30
2019-02-22T15:37:46.545Z,4.37
2019-02-22T15:40:15.096Z,4.90
2019-02-22T15:42:43.400Z,3.80
2019-02-22T15:45:14.115Z,4.47
2019-02-22T15:47:42.500Z,4.47
2019-02-22T15:50:14.032Z,4.70
2019-02-22T15:52:42.539Z,4.20
2019-02-22T15:55:11.152Z,4.27
2019-02-22T15:57:39.822Z,4.60
2019-02-22T16:00:27.780Z,4.47
2019-02-22T16:02:56.401Z,4.77
2019-02-22T16:05:26.392Z,5.20
2019-02-22T16:07:56.623Z,5.00
2019-02-22T16:10:25.178Z,5.80
2019-02-22T16:12:53.925Z,5.73
2019-02-22T16:15:22.647Z,5.33
2019-02-22T16:17:51.314Z,5.33
2019-02-22T16:20:19.867Z,4.90
2019-02-22T16:22:50.842Z,4.67
2019-02-22T16:25:20.216Z,4.40
2019-02-22T16:27:49.153Z,6.20
2019-02-22T16:30:19.684Z,4.50
2019-02-22T16:32:48.043Z,5.27
2019-02-22T16:35:16.415Z,4.77
2019-02-22T16:37:44.773Z,5.07
2019-02-22T16:40:13.075Z,4.80
2019-02-22T16:42:41.418Z,4.83
2019-02-22T16:45:11.971Z,5.40
2019-02-22T16:47:40.680Z,5.40
2019-02-22T16:50:10.983Z,5.13
2019-02-22T16:52:39.244Z,5.20
2019-02-22T16:55:10.329Z,5.13
2019-02-22T16:57:38.574Z,5.80
2019-02-22T17:00:09.182Z,5.57
2019-02-22T17:02:37.501Z,5.47
2019-02-22T17:05:07.723Z,4.73
2019-02-22T17:07:35.987Z,5.00
2019-02-22T17:10:06.527Z,5.13
2019-02-22T17:12:34.796Z,5.07
2019-02-22T17:15:03.111Z,5.30
2019-02-22T17:17:31.367Z,5.63
2019-02-22T17:19:59.633Z,5.67
2019-02-22T17:22:27.880Z,6.20
2019-02-22T17:24:56.143Z,5.40
2019-02-22T17:27:24.404Z,4.97
2019-02-22T17:29:52.679Z,5.23
2019-02-22T17:32:20.936Z,5.73
2019-02-22T17:34:49.181Z,5.60
2019-02-22T17:37:17.429Z,5.13
2019-02-22T17:39:46.097Z,5.30
2019-02-22T17:42:14.509Z,5.80
2019-02-22T17:44:42.800Z,5.30
2019-02-22T17:47:11.045Z,5.47
2019-02-22T17:49:39.292Z,5.20
2019-02-22T17:52:07.555Z,4.87
2019-02-22T17:54:35.870Z,4.93
2019-02-22T17:57:04.149Z,4.90
2019-02-22T17:59:32.487Z,5.10
2019-02-22T18:02:00.732Z,5.27
2019-02-22T18:04:29.005Z,4.70
2019-02-22T18:06:57.358Z,5.10
2019-02-22T18:09:25.602Z,4.97
2019-02-22T18:11:53.859Z,5.17
2019-02-22T18:14:22.416Z,5.47
2019-02-22T18:16:50.714Z,5.30
2019-02-22T18:19:18.977Z,5.30
2019-02-22T18:21:47.226Z,5.30
2019-02-22T18:24:15.523Z,5.10
2019-02-22T18:26:43.780Z,5.23
2019-02-22T18:29:12.098Z,5.40
2019-02-22T18:31:42.335Z,5.17
2019-02-22T18:34:10.328Z,4.93
2019-02-22T18:36:38.580Z,5.40
2019-02-22T18:39:06.937Z,5.43
2019-02-22T18:41:35.257Z,5.40
2019-02-22T18:44:03.512Z,5.67
2019-02-22T18:46:31.829Z,5.73
2019-02-22T18:49:00.124Z,5.87
2019-02-22T18:51:28.396Z,5.57
2019-02-22T18:53:56.641Z,5.97
2019-02-22T18:56:24.892Z,6.67
2019-02-22T18:58:53.177Z,6.10
2019-02-22T19:01:21.432Z,6.73
2019-02-22T19:03:49.690Z,6.90
2019-02-22T19:06:18.045Z,6.27
2019-02-22T19:08:46.368Z,6.50
2019-02-22T19:11:14.700Z,6.30
2019-02-22T19:13:42.971Z,6.50
2019-02-22T19:16:11.219Z,6.63
2019-02-22T19:18:39.401Z,6.63
2019-02-22T19:21:07.652Z,6.27
2019-02-22T19:23:35.915Z,6.93
2019-02-22T19:26:04.180Z,7.13
2019-02-22T19:28:32.452Z,7.03
2019-02-22T19:31:00.736Z,7.77
2019-02-22T19:33:29.066Z,8.57
2019-02-22T19:35:57.322Z,8.67
2019-02-22T19:38:25.584Z,8.10
2019-02-22T19:40:53.839Z,8.33
2019-02-22T19:43:22.107Z,9.23
2019-02-22T19:45:50.360Z,8.80
2019-02-22T19:48:18.687Z,8.87
2019-02-22T19:50:47.008Z,8.57
2019-02-22T19:53:15.263Z,9.30
2019-02-22T19:55:43.533Z,8.83
2019-02-22T19:58:11.789Z,8.67
2019-02-22T20:00:40.073Z,8.97
2019-02-22T20:03:08.336Z,10.23
2019-02-22T20:05:36.589Z,9.27
2019-02-22T20:08:05.850Z,9.33
2019-02-22T20:10:34.109Z,9.67
2019-02-22T20:13:02.378Z,9.80
2019-02-22T20:15:30.644Z,9.80
2019-02-22T20:17:58.991Z,8.70
2019-02-22T20:20:27.313Z,8.77
2019-02-22T20:22:55.592Z,8.50
2019-02-22T20:25:23.847Z,8.60
2019-02-22T20:27:52.111Z,8.43
2019-02-22T20:30:20.443Z,9.37
2019-02-22T20:32:48.697Z,10.40
2019-02-22T20:35:27.362Z,9.70
2019-02-22T20:37:55.622Z,9.23
2019-02-22T20:40:23.879Z,9.40
2019-02-22T20:42:52.143Z,9.83
2019-02-22T20:45:20.439Z,10.00
2019-02-22T20:47:48.843Z,9.20
2019-02-22T20:50:17.186Z,10.13
2019-02-22T20:52:45.525Z,9.00
2019-02-22T20:55:14.778Z,9.50
2019-02-22T20:57:43.186Z,9.67
2019-02-22T21:00:16.476Z,10.33
2019-02-22T21:02:44.917Z,10.50
2019-02-22T21:05:13.236Z,10.40
2019-02-22T21:07:41.629Z,10.17
2019-02-22T21:10:12.737Z,10.27
2019-02-22T21:12:41.029Z,10.30
2019-02-22T21:15:11.770Z,10.83
2019-02-22T21:17:40.105Z,10.10
2019-02-22T21:20:11.376Z,11.20
2019-02-22T21:22:39.787Z,10.93
2019-02-22T21:25:11.289Z,12.47
2019-02-22T21:27:39.705Z,12.33
2019-02-22T21:30:11.407Z,12.70
2019-02-22T21:32:39.928Z,13.00
2019-02-22T21:35:09.000Z,12.70
2019-02-22T21:37:38.058Z,13.70
2019-02-22T21:40:09.349Z,13.83
2019-02-22T21:42:37.606Z,14.27
2019-02-22T21:45:08.913Z,13.80
2019-02-22T21:47:37.348Z,13.33
2019-02-22T21:50:08.936Z,13.07
2019-02-22T21:52:37.203Z,13.47
2019-02-22T21:55:07.514Z,13.50
2019-02-22T21:57:35.951Z,13.73
2019-02-22T22:00:06.237Z,13.50
2019-02-22T22:02:34.681Z,13.80
2019-02-22T22:05:03.066Z,14.97
2019-02-22T22:07:31.509Z,14.30
2019-02-22T22:09:59.989Z,14.07
2019-02-22T22:12:28.356Z,14.33
2019-02-22T22:14:56.736Z,15.40
2019-02-22T22:17:25.029Z,15.73
2019-02-22T22:19:53.289Z,15.53
2019-02-22T22:22:21.641Z,15.17
2019-02-22T22:24:50.044Z,15.10
2019-02-22T22:27:18.415Z,16.43
2019-02-22T22:29:46.695Z,15.83
2019-02-22T22:32:15.081Z,15.50
2019-02-22T22:34:43.344Z,16.47
2019-02-22T22:37:11.693Z,16.20
2019-02-22T22:39:39.986Z,16.13
2019-02-22T22:42:08.269Z,15.43
2019-02-22T22:44:36.607Z,16.23
2019-02-22T22:47:04.990Z,16.83
2019-02-22T22:49:38.055Z,15.53
2019-02-22T22:52:06.418Z,17.20
2019-02-22T22:54:34.841Z,18.87
2019-02-22T22:57:03.224Z,17.57
2019-02-22T22:59:31.579Z,17.57
2019-02-22T23:01:59.994Z,18.67
2019-02-22T23:04:28.457Z,18.17
2019-02-22T23:06:56.751Z,17.80
2019-02-22T23:09:25.445Z,18.53
2019-02-22T23:11:53.727Z,19.60
2019-02-22T23:14:22.067Z,19.00
2019-02-22T23:16:50.350Z,19.47
2019-02-22T23:19:18.663Z,19.20
2019-02-22T23:21:48.067Z,20.13
2019-02-22T23:24:16.354Z,19.17
2019-02-22T23:26:44.695Z,19.70
2019-02-22T23:29:12.983Z,19.93
2019-02-22T23:31:41.242Z,20.67
2019-02-22T23:34:09.510Z,19.23
2019-02-22T23:36:37.985Z,20.43
2019-02-22T23:39:08.004Z,20.70
2019-02-22T23:41:36.274Z,19.20
2019-02-22T23:44:04.603Z,21.00
2019-02-22T23:46:32.919Z,21.03
2019-02-22T23:49:12.579Z,20.73
2019-02-22T23:51:31.275Z,21.33
2019-02-22T23:53:59.616Z,19.80
2019-02-22T23:56:27.884Z,20.63
2019-02-22T23:59:01.044Z,20.80
